Time;durP1;ratioP1;P1;durP2;ratioP2;P2;SDS_P1;SDS_P2;PMS_P1;PMS_P2;Temp;Humidity;BMP_temperature;BMP_pressure;BME280_temperature;BME280_humidity;BME280_pressure;Samples;Min_cycle;Max_cycle;Signal;HPM_P1;HPM_P2
2022/01/22 00:00:47;;;;;;;21.10;17.27;;;6.80;99.90;;;;;;5082379;28;20464;-40
2022/01/22 00:03:13;;;;;;;22.40;16.40;;;6.90;99.90;;;;;;5085316;28;20419;-40
2022/01/22 00:05:40;;;;;;;21.57;16.50;;;7.00;99.90;;;;;;5086895;28;20184;-40
2022/01/22 00:08:06;;;;;;;20.03;17.63;;;6.90;99.90;;;;;;5089037;28;20213;-41
2022/01/22 00:10:32;;;;;;;19.57;16.73;;;6.70;99.90;;;;;;5087014;28;20423;-40
2022/01/22 00:15:29;;;;;;;23.87;17.67;;;6.70;99.90;;;;;;5084491;28;20435;-40
2022/01/22 00:17:56;;;;;;;23.17;17.67;;;6.60;99.90;;;;;;5084304;28;20458;-40
2022/01/22 00:20:24;;;;;;;20.60;17.93;;;6.70;99.90;;;;;;5088401;28;20460;-41
2022/01/22 00:22:50;;;;;;;22.47;17.77;;;6.80;99.90;;;;;;5088811;28;20485;-40
2022/01/22 00:25:17;;;;;;;27.67;20.73;;;6.80;99.90;;;;;;5089015;28;20414;-40
2022/01/22 00:27:45;;;;;;;23.63;18.30;;;6.70;99.90;;;;;;5088370;28;20426;-41
2022/01/22 00:30:13;;;;;;;28.40;19.67;;;6.60;99.90;;;;;;5085178;28;21089;-40
2022/01/22 00:32:39;;;;;;;26.40;18.30;;;6.70;99.90;;;;;;5082440;28;20456;-40
2022/01/22 00:35:07;;;;;;;29.07;19.70;;;6.70;99.90;;;;;;5082406;28;20454;-40
2022/01/22 00:37:34;;;;;;;24.30;19.57;;;6.60;99.90;;;;;;5088388;28;20242;-41
2022/01/22 00:40:00;;;;;;;21.80;17.90;;;6.40;99.90;;;;;;5087745;28;20450;-40
2022/01/22 00:42:26;;;;;;;27.37;18.23;;;6.20;99.90;;;;;;5087527;28;20513;-41
2022/01/22 00:44:52;;;;;;;23.00;17.80;;;6.00;99.90;;;;;;5088429;28;20490;-40
2022/01/22 00:47:18;;;;;;;21.13;17.00;;;6.30;99.90;;;;;;5080578;28;20198;-42
2022/01/22 00:49:45;;;;;;;23.90;15.90;;;6.40;99.90;;;;;;5087034;28;20209;-40
2022/01/22 00:52:11;;;;;;;18.90;15.77;;;6.40;99.90;;;;;;5088389;28;20825;-40
2022/01/22 00:54:36;;;;;;;22.47;14.80;;;6.40;99.90;;;;;;5086319;28;20467;-40
2022/01/22 00:57:03;;;;;;;23.90;15.50;;;6.30;99.90;;;;;;5088165;28;20256;-40
2022/01/22 00:59:28;;;;;;;21.47;15.10;;;6.60;99.90;;;;;;5088221;28;20192;-42
2022/01/22 01:01:54;;;;;;;19.77;16.23;;;6.50;99.90;;;;;;5078479;28;20465;-40
2022/01/22 01:04:20;;;;;;;22.20;16.30;;;6.40;99.90;;;;;;5087879;28;20184;-43
2022/01/22 01:06:45;;;;;;;17.10;13.97;;;6.30;99.90;;;;;;5088155;28;20196;-40
2022/01/22 01:09:12;;;;;;;19.70;15.60;;;6.30;99.90;;;;;;5087968;28;20196;-40
2022/01/22 01:11:44;;;;;;;19.10;14.60;;;6.20;99.90;;;;;;5085789;28;20196;-42
2022/01/22 01:14:16;;;;;;;18.03;16.07;;;6.30;99.90;;;;;;5088047;28;20708;-39
2022/01/22 01:17:07;;;;;;;22.87;15.30;;;6.30;99.90;;;;;;5077724;28;20458;-40
2022/01/22 01:35:48;;;;;;;27.37;17.17;;;6.20;99.90;;;;;;5087699;28;20427;-40
2022/01/22 01:38:17;;;;;;;20.40;15.77;;;6.10;99.90;;;;;;5087488;28;20473;-40
2022/01/22 01:40:45;;;;;;;19.70;15.70;;;6.10;99.90;;;;;;5086720;28;20621;-40
2022/01/22 01:43:23;;;;;;;22.60;17.17;;;6.20;99.90;;;;;;5087626;28;20936;-40
2022/01/22 01:45:48;;;;;;;22.47;17.50;;;6.10;99.90;;;;;;5082750;28;20455;-41
2022/01/22 01:48:19;;;;;;;21.07;18.30;;;6.10;99.90;;;;;;5075413;28;20480;-40
2022/01/22 01:50:45;;;;;;;24.47;18.27;;;6.30;99.90;;;;;;5082918;28;20188;-39
2022/01/22 01:58:29;;;;;;;21.20;18.10;;;6.20;99.90;;;;;;5087163;28;20573;-39
2022/01/22 02:00:56;;;;;;;25.07;19.23;;;6.30;99.90;;;;;;5082682;28;20185;-40
2022/01/22 02:03:23;;;;;;;24.27;19.70;;;6.10;99.90;;;;;;5082206;28;20801;-39
2022/01/22 02:05:48;;;;;;;27.13;20.00;;;6.10;99.90;;;;;;5087260;28;20696;-39
2022/01/22 02:08:15;;;;;;;26.33;21.37;;;6.00;99.90;;;;;;5087229;28;20827;-40
2022/01/22 02:10:53;;;;;;;34.03;21.90;;;6.10;99.90;;;;;;5085615;28;20188;-40
2022/01/22 02:13:43;;;;;;;25.67;19.87;;;6.20;99.90;;;;;;5087018;28;20430;-40
2022/01/22 02:24:49;;;;;;;31.00;22.93;;;5.90;99.90;;;;;;5087128;28;20584;-40
2022/01/22 02:27:15;;;;;;;25.93;20.60;;;5.90;99.90;;;;;;5087259;28;20959;-40
2022/01/22 02:29:41;;;;;;;26.67;20.70;;;5.80;99.90;;;;;;5086385;28;20450;-40
2022/01/22 02:35:12;;;;;;;32.23;23.37;;;6.00;99.90;;;;;;5085660;28;20417;-39
2022/01/22 02:37:43;;;;;;;28.97;22.13;;;6.10;99.90;;;;;;5087177;28;20578;-40
2022/01/22 02:40:14;;;;;;;31.37;22.30;;;6.10;99.90;;;;;;5086629;28;20435;-40
2022/01/22 02:42:42;;;;;;;31.10;23.13;;;6.10;99.90;;;;;;5087021;28;20522;-40
2022/01/22 02:45:11;;;;;;;31.53;23.30;;;5.90;99.90;;;;;;5087097;28;20421;-39
2022/01/22 02:47:37;;;;;;;30.87;23.67;;;5.90;99.90;;;;;;5073434;28;21823;-40
2022/01/22 02:50:05;;;;;;;32.03;23.30;;;5.90;99.90;;;;;;5086198;28;20501;-40
2022/01/22 02:52:31;;;;;;;31.90;24.77;;;5.60;99.90;;;;;;5086994;28;20426;-40
2022/01/22 02:54:56;;;;;;;32.17;24.00;;;5.70;99.90;;;;;;5086912;28;20545;-40
2022/01/22 02:57:23;;;;;;;35.60;23.37;;;5.80;99.90;;;;;;5086672;28;20303;-41
2022/01/22 02:59:49;;;;;;;32.67;24.47;;;6.00;99.90;;;;;;5086183;28;20188;-39
2022/01/22 03:02:15;;;;;;;32.57;23.97;;;5.90;99.90;;;;;;5076207;28;20836;-39
2022/01/22 03:04:42;;;;;;;29.57;22.27;;;5.70;99.90;;;;;;5088194;28;20429;-40
2022/01/22 03:07:08;;;;;;;36.13;25.00;;;5.70;99.90;;;;;;5090389;28;20184;-40
2022/01/22 03:09:40;;;;;;;33.23;23.70;;;5.90;99.90;;;;;;5090201;28;20430;-40
2022/01/22 03:27:46;;;;;;;32.30;22.93;;;5.90;99.90;;;;;;5083458;28;20419;-40
2022/01/22 03:30:11;;;;;;;30.77;23.00;;;5.80;99.90;;;;;;5089948;28;20915;-39
2022/01/22 03:32:44;;;;;;;30.33;22.60;;;5.80;99.90;;;;;;5079910;28;20566;-41
2022/01/22 03:35:23;;;;;;;32.97;23.80;;;5.90;99.90;;;;;;5085893;28;20596;-39
2022/01/22 03:37:55;;;;;;;29.67;21.30;;;5.70;99.90;;;;;;5085646;28;21042;-39
2022/01/22 03:40:24;;;;;;;30.80;22.17;;;5.70;99.90;;;;;;5089472;28;20444;-40
2022/01/22 03:42:51;;;;;;;30.73;22.10;;;5.70;99.90;;;;;;5089454;28;20437;-39
2022/01/22 03:45:18;;;;;;;28.07;21.10;;;5.90;99.90;;;;;;5090375;28;20429;-39
2022/01/22 03:47:44;;;;;;;29.90;21.90;;;5.80;99.90;;;;;;5078422;28;20836;-40
2022/01/22 03:50:11;;;;;;;34.17;22.47;;;5.70;99.90;;;;;;5088953;28;20422;-40
2022/01/22 03:52:37;;;;;;;32.57;22.70;;;5.90;99.90;;;;;;5089685;28;20800;-40
2022/01/22 03:55:05;;;;;;;31.43;21.23;;;5.90;99.90;;;;;;5089470;28;20430;-39
2022/01/22 03:57:31;;;;;;;38.47;23.57;;;5.80;99.90;;;;;;5089375;28;20234;-41
2022/01/22 03:59:57;;;;;;;35.17;23.90;;;5.70;99.90;;;;;;5088821;28;20851;-39
2022/01/22 04:05:07;;;;;;;29.90;22.13;;;5.80;99.90;;;;;;5084288;28;20422;-42
2022/01/22 04:10:02;;;;;;;33.80;21.60;;;5.70;99.90;;;;;;5088336;28;20426;-39
2022/01/22 04:12:48;;;;;;;33.13;22.83;;;5.80;99.90;;;;;;5087930;28;20441;-40
2022/01/22 04:15:17;;;;;;;31.87;21.73;;;5.70;99.90;;;;;;5089028;28;20585;-40
2022/01/22 04:25:53;;;;;;;30.17;18.70;;;5.70;99.90;;;;;;5088963;28;20450;-40
2022/01/22 04:28:19;;;;;;;28.50;19.20;;;6.20;99.90;;;;;;5089059;28;20862;-40
2022/01/22 04:30:46;;;;;;;25.57;18.30;;;6.10;99.90;;;;;;5088491;28;20426;-41
2022/01/22 04:33:12;;;;;;;28.50;19.90;;;6.00;99.90;;;;;;5080527;28;20242;-40
2022/01/22 04:35:37;;;;;;;26.40;17.97;;;6.20;99.90;;;;;;5088180;28;20520;-40
2022/01/22 04:38:03;;;;;;;24.83;18.20;;;6.00;99.90;;;;;;5088751;28;20466;-40
2022/01/22 04:40:29;;;;;;;26.27;17.53;;;6.10;99.90;;;;;;5086543;28;20562;-39
2022/01/22 04:42:55;;;;;;;26.33;18.63;;;6.10;99.90;;;;;;5088445;28;20264;-40
2022/01/22 04:45:42;;;;;;;23.00;15.67;;;5.90;99.90;;;;;;5088454;28;20189;-40
2022/01/22 04:55:44;;;;;;;18.60;14.20;;;6.00;99.90;;;;;;5088286;28;21010;-40
2022/01/22 04:58:10;;;;;;;19.47;14.60;;;5.90;99.90;;;;;;5086912;28;20224;-40
2022/01/22 05:00:38;;;;;;;23.40;15.47;;;6.10;99.90;;;;;;5087547;28;20452;-39
2022/01/22 05:03:05;;;;;;;22.73;15.23;;;5.90;99.90;;;;;;5080628;28;20469;-40
2022/01/22 05:05:31;;;;;;;21.17;15.97;;;6.10;99.90;;;;;;5086462;28;20426;-41
2022/01/22 05:07:57;;;;;;;22.03;14.87;;;6.00;99.90;;;;;;5087845;28;20419;-40
2022/01/22 05:10:23;;;;;;;21.57;15.43;;;5.90;99.90;;;;;;5086308;28;20426;-39
2022/01/22 05:12:49;;;;;;;21.77;15.70;;;6.00;99.90;;;;;;5087811;28;20192;-40
2022/01/22 05:15:17;;;;;;;22.80;16.27;;;6.00;99.90;;;;;;5088356;28;20491;-40
2022/01/22 05:17:44;;;;;;;21.40;14.93;;;5.90;99.90;;;;;;5079655;28;20502;-40
2022/01/22 05:23:25;;;;;;;22.47;16.87;;;6.00;99.90;;;;;;5087787;28;20430;-40
2022/01/22 05:25:35;;;;;;;22.30;15.00;;;5.90;99.90;;;;;;5081827;28;20466;-39
2022/01/22 05:36:53;;;;;;;19.40;14.60;;;6.10;99.90;;;;;;5081527;28;20196;-40
2022/01/22 05:38:38;;;;;;;19.30;15.30;;;6.10;99.90;;;;;;5087513;28;20729;-41
2022/01/22 05:41:04;;;;;;;23.77;15.50;;;6.10;99.90;;;;;;5086977;28;20434;-39
2022/01/22 05:43:30;;;;;;;22.43;16.10;;;5.90;99.90;;;;;;5087551;28;20196;-40
2022/01/22 05:45:56;;;;;;;24.97;16.20;;;5.80;99.90;;;;;;5087544;28;20912;-40
2022/01/22 05:48:22;;;;;;;22.57;15.30;;;5.80;99.90;;;;;;5076267;28;20200;-40
2022/01/22 05:50:52;;;;;;;22.97;16.03;;;5.80;99.90;;;;;;5087223;28;20729;-40
2022/01/22 06:01:11;;;;;;;23.97;17.33;;;6.00;99.90;;;;;;5087039;28;20438;-39
2022/01/22 06:03:37;;;;;;;24.37;17.17;;;6.00;99.90;;;;;;5078247;28;20439;-40
2022/01/22 06:06:04;;;;;;;26.00;17.70;;;6.10;99.90;;;;;;5087329;28;20483;-39
2022/01/22 06:08:32;;;;;;;26.13;16.10;;;6.00;99.90;;;;;;5087282;28;20449;-39
2022/01/22 06:11:00;;;;;;;25.10;16.60;;;5.90;99.90;;;;;;5085246;28;20434;-39
2022/01/22 06:13:43;;;;;;;26.23;17.70;;;5.90;99.90;;;;;;5087328;28;20991;-42
2022/01/22 06:16:09;;;;;;;26.57;17.37;;;6.10;99.90;;;;;;5087480;28;20442;-40
2022/01/22 06:18:34;;;;;;;27.63;16.73;;;6.10;99.90;;;;;;5078554;28;20501;-40
2022/01/22 06:21:00;;;;;;;25.60;17.73;;;5.90;99.90;;;;;;5080966;28;20425;-40
2022/01/22 06:23:26;;;;;;;24.40;15.90;;;6.10;99.90;;;;;;5087207;28;20189;-40
2022/01/22 06:25:51;;;;;;;24.77;16.77;;;6.30;99.90;;;;;;5087014;28;20180;-40
2022/01/22 06:28:17;;;;;;;28.50;17.37;;;6.00;99.90;;;;;;5087217;28;20269;-39
2022/01/22 06:30:44;;;;;;;23.23;16.20;;;6.10;99.90;;;;;;5086712;28;20196;-39
2022/01/22 06:33:10;;;;;;;27.50;18.57;;;6.20;99.90;;;;;;5081167;28;20810;-41
2022/01/22 06:35:35;;;;;;;25.77;17.07;;;6.20;99.90;;;;;;5078452;28;20920;-41
2022/01/22 06:38:03;;;;;;;22.53;16.50;;;6.30;99.90;;;;;;5081469;28;20209;-40
2022/01/22 06:42:54;;;;;;;25.00;16.90;;;6.30;99.90;;;;;;5090218;28;20982;-40
2022/01/22 06:45:20;;;;;;;24.93;16.77;;;6.10;99.90;;;;;;5090661;28;20273;-40
2022/01/22 06:47:45;;;;;;;24.17;16.83;;;6.00;99.90;;;;;;5087112;28;20192;-39
2022/01/22 06:50:11;;;;;;;22.23;15.00;;;6.00;99.90;;;;;;5084453;28;20199;-40
2022/01/22 06:52:38;;;;;;;23.93;15.83;;;6.30;99.90;;;;;;5090478;28;20172;-39
2022/01/22 06:55:06;;;;;;;20.63;15.27;;;6.30;99.90;;;;;;5089452;28;20192;-41
2022/01/22 06:57:32;;;;;;;22.50;15.40;;;6.10;99.90;;;;;;5088721;28;20466;-39
2022/01/22 06:59:58;;;;;;;21.77;15.30;;;6.10;99.90;;;;;;5090164;28;20471;-40
2022/01/22 07:02:24;;;;;;;22.43;15.53;;;6.30;99.90;;;;;;5090042;28;20521;-40
2022/01/22 07:04:50;;;;;;;19.83;15.20;;;6.10;99.90;;;;;;5078226;28;20458;-39
2022/01/22 07:07:15;;;;;;;28.40;15.37;;;6.20;99.90;;;;;;5090406;28;20940;-40
2022/01/22 07:09:41;;;;;;;26.00;16.30;;;6.30;99.90;;;;;;5089954;28;20568;-40
2022/01/22 07:12:08;;;;;;;19.50;14.00;;;6.20;99.90;;;;;;5089146;28;20269;-39
2022/01/22 07:14:33;;;;;;;22.40;15.07;;;6.30;99.90;;;;;;5090288;28;20185;-40
2022/01/22 07:16:59;;;;;;;26.50;15.10;;;6.10;99.90;;;;;;5076989;28;20840;-41
2022/01/22 07:19:26;;;;;;;22.90;15.67;;;6.10;99.90;;;;;;5076698;28;20185;-40
2022/01/22 07:22:01;;;;;;;22.10;14.43;;;6.20;99.90;;;;;;5087544;28;20422;-40
2022/01/22 07:24:30;;;;;;;20.70;14.00;;;6.10;99.90;;;;;;5088132;28;20516;-40
2022/01/22 07:26:56;;;;;;;24.77;15.97;;;6.30;99.90;;;;;;5090481;28;20449;-40
2022/01/22 07:29:22;;;;;;;23.17;14.73;;;6.10;99.90;;;;;;5090074;28;20784;-40
2022/01/22 07:31:48;;;;;;;19.87;14.80;;;6.20;99.90;;;;;;5085523;28;20244;-40
2022/01/22 07:34:15;;;;;;;20.87;14.50;;;6.20;99.90;;;;;;5076569;28;20524;-40
2022/01/22 07:36:41;;;;;;;21.37;14.30;;;6.20;99.90;;;;;;5089648;28;20414;-40
2022/01/22 07:39:07;;;;;;;20.70;13.83;;;6.30;99.90;;;;;;5088081;28;20517;-39
2022/01/22 07:41:32;;;;;;;24.20;13.90;;;6.20;99.90;;;;;;5089476;28;20833;-39
2022/01/22 07:43:58;;;;;;;22.80;14.33;;;6.30;99.90;;;;;;5089626;28;20426;-39
2022/01/22 07:46:25;;;;;;;22.47;14.70;;;6.20;99.90;;;;;;5089911;28;20191;-40
2022/01/22 07:48:50;;;;;;;21.90;15.10;;;6.20;99.90;;;;;;5089012;28;20427;-41
2022/01/22 07:51:17;;;;;;;20.30;13.30;;;6.40;99.90;;;;;;5086060;28;20718;-39
2022/01/22 07:53:46;;;;;;;20.93;14.20;;;6.00;99.90;;;;;;5085108;28;20496;-39
2022/01/22 07:56:12;;;;;;;25.43;14.67;;;6.20;99.90;;;;;;5085479;28;21073;-40
2022/01/22 07:58:39;;;;;;;24.23;15.37;;;6.30;99.90;;;;;;5086930;28;21039;-40
2022/01/22 08:01:04;;;;;;;22.40;14.57;;;6.20;99.90;;;;;;5088302;28;20438;-40
2022/01/22 08:03:30;;;;;;;20.37;14.50;;;6.30;99.90;;;;;;5086565;28;20430;-40
2022/01/22 08:05:56;;;;;;;26.20;15.90;;;6.40;99.90;;;;;;5087701;28;20191;-43
2022/01/22 08:08:21;;;;;;;27.40;16.53;;;6.20;99.90;;;;;;5086235;28;20434;-41
2022/01/22 08:10:47;;;;;;;24.17;15.43;;;6.30;99.90;;;;;;5087931;28;20188;-40
2022/01/22 08:13:13;;;;;;;23.53;15.50;;;6.20;99.90;;;;;;5089712;28;20188;-39
2022/01/22 08:15:39;;;;;;;28.73;15.70;;;6.10;99.90;;;;;;5086850;28;20188;-40
2022/01/22 08:18:07;;;;;;;32.93;18.53;;;6.00;99.90;;;;;;5087525;28;20454;-39
2022/01/22 08:20:33;;;;;;;25.47;16.87;;;6.20;99.90;;;;;;5079744;28;20189;-40
2022/01/22 08:22:59;;;;;;;28.50;16.20;;;6.10;99.90;;;;;;5088817;28;20425;-40
2022/01/22 08:25:25;;;;;;;23.60;15.80;;;6.20;99.90;;;;;;5081360;28;20268;-40
2022/01/22 08:30:27;;;;;;;24.33;16.57;;;6.30;99.90;;;;;;5088829;28;20508;-40
2022/01/22 08:35:53;;;;;;;20.97;13.97;;;6.30;99.90;;;;;;5079682;28;20445;-40
2022/01/22 08:38:22;;;;;;;21.70;14.23;;;6.50;99.90;;;;;;5088079;28;20980;-39
2022/01/22 08:40:49;;;;;;;22.30;14.53;;;6.30;99.90;;;;;;5089276;28;20418;-40
2022/01/22 08:43:14;;;;;;;20.73;13.20;;;6.40;99.90;;;;;;5088558;28;20422;-42
2022/01/22 08:45:40;;;;;;;20.93;14.53;;;6.30;99.90;;;;;;5088332;28;20943;-40
2022/01/22 08:48:06;;;;;;;26.33;15.50;;;6.20;99.90;;;;;;5088610;28;20184;-40
2022/01/22 08:50:34;;;;;;;23.10;14.07;;;6.20;99.90;;;;;;5080502;28;20270;-40
2022/01/22 08:53:00;;;;;;;22.10;13.97;;;6.30;99.90;;;;;;5082495;28;20225;-40
2022/01/22 08:55:26;;;;;;;25.23;15.63;;;6.10;99.90;;;;;;5088673;28;20469;-40
2022/01/22 08:57:51;;;;;;;21.57;13.70;;;6.30;99.90;;;;;;5088195;28;20472;-40
2022/01/22 09:00:19;;;;;;;22.47;13.20;;;6.20;99.90;;;;;;5087513;28;20786;-40
2022/01/22 09:02:45;;;;;;;21.33;14.03;;;6.40;99.90;;;;;;5087611;28;20191;-39
2022/01/22 09:05:12;;;;;;;22.33;14.30;;;6.30;99.90;;;;;;5072084;28;20435;-40
2022/01/22 09:07:38;;;;;;;22.43;14.60;;;6.30;99.90;;;;;;5088055;28;20480;-39
2022/01/22 09:10:04;;;;;;;25.83;15.70;;;6.30;99.90;;;;;;5087323;28;20862;-40
2022/01/22 09:12:30;;;;;;;26.70;16.10;;;6.50;99.90;;;;;;5087053;28;20426;-40
2022/01/22 09:14:56;;;;;;;26.57;16.70;;;6.40;99.90;;;;;;5087680;28;20711;-40
2022/01/22 09:17:22;;;;;;;26.20;16.40;;;6.50;99.90;;;;;;5087863;28;20215;-40
2022/01/22 09:19:48;;;;;;;24.73;15.90;;;6.60;99.90;;;;;;5077124;28;20323;-40
2022/01/22 09:22:15;;;;;;;27.17;17.00;;;6.40;99.90;;;;;;5087751;28;20513;-39
2022/01/22 09:24:41;;;;;;;23.70;16.07;;;6.70;99.90;;;;;;5087526;28;20599;-40
2022/01/22 09:27:07;;;;;;;26.47;15.97;;;6.70;99.90;;;;;;5088354;28;20475;-40
2022/01/22 09:29:35;;;;;;;28.30;16.60;;;6.60;99.90;;;;;;5087290;28;20770;-40
2022/01/22 09:32:01;;;;;;;24.23;16.73;;;6.60;99.90;;;;;;5087887;28;20430;-41
2022/01/22 09:34:26;;;;;;;26.00;14.67;;;6.50;99.90;;;;;;5080233;28;20920;-40
2022/01/22 09:36:52;;;;;;;28.40;17.30;;;6.40;99.90;;;;;;5081563;28;20433;-41
2022/01/22 09:39:18;;;;;;;21.30;15.13;;;6.30;99.90;;;;;;5087764;28;20230;-39
2022/01/22 09:41:45;;;;;;;21.07;15.50;;;6.50;99.90;;;;;;5086807;28;20697;-40
2022/01/22 09:44:12;;;;;;;23.13;15.47;;;6.60;99.90;;;;;;5087464;28;20423;-40
2022/01/22 09:46:40;;;;;;;21.80;14.90;;;6.70;99.90;;;;;;5086404;28;20414;-41
2022/01/22 09:49:06;;;;;;;22.30;15.37;;;6.70;99.90;;;;;;5084540;28;20963;-40
2022/01/22 09:51:32;;;;;;;26.20;16.03;;;6.50;99.90;;;;;;5080554;28;20422;-39
2022/01/22 09:53:57;;;;;;;23.40;15.30;;;6.60;99.90;;;;;;5087535;28;21116;-40
2022/01/22 09:56:24;;;;;;;21.70;14.87;;;6.80;99.90;;;;;;5087039;28;20731;-39
2022/01/22 09:58:51;;;;;;;28.70;17.67;;;6.40;99.90;;;;;;5087507;28;20220;-40
2022/01/22 10:01:20;;;;;;;25.93;16.10;;;6.40;99.90;;;;;;5086789;28;20468;-40
2022/01/22 10:03:46;;;;;;;31.17;18.70;;;6.60;99.90;;;;;;5086219;28;20584;-39
2022/01/22 10:06:20;;;;;;;28.47;18.93;;;6.50;99.90;;;;;;5079858;28;20497;-41
2022/01/22 10:08:46;;;;;;;25.80;17.43;;;6.60;99.90;;;;;;5083911;28;20772;-40
2022/01/22 10:11:21;;;;;;;31.63;20.03;;;6.60;99.90;;;;;;5085441;28;20429;-40
2022/01/22 10:13:52;;;;;;;29.47;18.83;;;6.50;99.90;;;;;;5089141;28;20188;-40
2022/01/22 10:16:19;;;;;;;34.03;19.40;;;6.70;99.90;;;;;;5091505;28;20438;-40
2022/01/22 10:18:46;;;;;;;30.30;19.10;;;6.80;99.90;;;;;;5091225;28;20465;-40
2022/01/22 10:21:15;;;;;;;36.57;20.87;;;6.80;99.90;;;;;;5078743;28;20718;-42
2022/01/22 10:23:41;;;;;;;37.97;22.87;;;6.60;99.90;;;;;;5091344;28;20555;-40
2022/01/22 10:26:12;;;;;;;34.20;20.40;;;6.50;99.90;;;;;;5091690;28;20758;-40
2022/01/22 10:28:48;;;;;;;28.57;19.97;;;6.90;99.90;;;;;;5091208;28;20430;-39
2022/01/22 10:31:24;;;;;;;29.50;18.90;;;6.70;99.90;;;;;;5090690;28;20426;-40
2022/01/22 10:34:07;;;;;;;29.57;19.00;;;6.80;99.90;;;;;;5090925;28;20838;-40
2022/01/22 10:36:33;;;;;;;27.20;18.47;;;6.90;99.90;;;;;;5082480;28;21023;-40
2022/01/22 10:38:59;;;;;;;29.33;19.50;;;6.70;99.90;;;;;;5090829;28;20607;-40
2022/01/22 10:41:36;;;;;;;30.47;20.00;;;6.70;99.90;;;;;;5090431;28;20419;-40
2022/01/22 10:44:03;;;;;;;27.80;18.83;;;7.00;99.90;;;;;;5090802;28;20932;-40
2022/01/22 10:46:47;;;;;;;32.07;18.07;;;6.60;99.90;;;;;;5090775;28;20414;-39
2022/01/22 10:49:24;;;;;;;27.30;18.07;;;6.90;99.90;;;;;;5088584;28;20426;-41
2022/01/22 10:52:11;;;;;;;29.70;18.50;;;6.90;99.90;;;;;;5088030;28;20413;-40
2022/01/22 10:54:38;;;;;;;28.70;19.47;;;6.80;99.90;;;;;;5089953;28;20422;-43
2022/01/22 10:57:19;;;;;;;32.67;20.37;;;6.90;99.90;;;;;;5090578;28;20474;-39
2022/01/22 10:59:55;;;;;;;34.07;20.37;;;7.20;99.90;;;;;;5090078;28;20426;-40
2022/01/22 11:02:38;;;;;;;30.30;19.10;;;6.90;99.90;;;;;;5090700;28;21010;-40
2022/01/22 11:05:05;;;;;;;28.60;18.30;;;6.80;99.90;;;;;;5085069;28;20443;-41
2022/01/22 11:07:31;;;;;;;24.00;17.67;;;7.00;99.90;;;;;;5081879;28;20430;-40
2022/01/22 11:09:57;;;;;;;24.97;16.70;;;6.90;99.90;;;;;;5089704;28;20495;-39
2022/01/22 11:12:22;;;;;;;23.73;15.60;;;7.00;99.90;;;;;;5089592;28;20185;-40
2022/01/22 11:14:48;;;;;;;22.83;16.20;;;6.90;99.90;;;;;;5090234;28;20551;-40
2022/01/22 11:17:14;;;;;;;21.67;14.43;;;6.90;99.90;;;;;;5090535;28;20223;-40
2022/01/22 11:19:47;;;;;;;22.00;14.20;;;7.10;99.90;;;;;;5087292;28;20190;-40
2022/01/22 11:22:15;;;;;;;20.47;13.83;;;7.10;99.90;;;;;;5084451;28;20419;-39
2022/01/22 11:24:46;;;;;;;19.07;13.10;;;7.10;99.90;;;;;;5089529;28;20417;-40
2022/01/22 11:27:15;;;;;;;19.53;13.40;;;7.00;99.90;;;;;;5090573;28;20824;-40
2022/01/22 11:29:53;;;;;;;18.50;13.30;;;7.00;99.90;;;;;;5089340;28;20495;-40
2022/01/22 11:32:27;;;;;;;19.90;12.30;;;7.20;99.90;;;;;;5090002;28;20438;-41
2022/01/22 11:34:57;;;;;;;16.90;12.10;;;7.30;99.90;;;;;;5087595;28;20422;-40
2022/01/22 11:37:48;;;;;;;16.40;11.80;;;7.20;99.90;;;;;;5087088;28;20502;-40
2022/01/22 11:40:16;;;;;;;16.50;11.43;;;7.20;99.90;;;;;;5080852;28;20418;-40
2022/01/22 11:43:13;;;;;;;15.77;10.30;;;7.20;99.90;;;;;;5089791;28;20426;-40
2022/01/22 11:45:42;;;;;;;14.67;10.33;;;7.30;99.90;;;;;;5089951;28;20422;-39
2022/01/22 11:48:20;;;;;;;15.10;11.20;;;7.20;99.90;;;;;;5089983;28;21029;-39
2022/01/22 11:50:51;;;;;;;13.20;10.63;;;7.20;99.90;;;;;;5083700;28;20792;-40
2022/01/22 11:53:27;;;;;;;15.50;11.10;;;7.10;99.90;;;;;;5086098;28;20727;-40
2022/01/22 11:56:10;;;;;;;14.80;10.00;;;7.10;99.90;;;;;;5086786;28;20422;-40
2022/01/22 11:59:02;;;;;;;12.50;9.33;;;7.20;99.90;;;;;;5090005;28;20477;-43
2022/01/22 12:01:45;;;;;;;11.17;8.93;;;7.20;99.90;;;;;;5078103;28;20422;-40
2022/01/22 12:04:16;;;;;;;10.20;7.63;;;7.20;99.90;;;;;;5089548;28;20454;-40
2022/01/22 12:07:05;;;;;;;12.17;8.73;;;7.20;99.90;;;;;;5077586;28;20955;-40
2022/01/22 12:09:32;;;;;;;9.77;7.23;;;7.20;99.90;;;;;;5081913;28;20428;-40
2022/01/22 12:15:00;;;;;;;9.17;6.80;;;6.90;99.90;;;;;;5088322;28;20508;-40
2022/01/22 12:18:04;;;;;;;12.53;8.80;;;7.10;99.90;;;;;;5088223;28;20560;-39
2022/01/22 12:20:41;;;;;;;14.30;10.00;;;6.80;99.90;;;;;;5048222;28;20193;-40
2022/01/22 12:23:10;;;;;;;13.27;9.60;;;7.00;99.90;;;;;;5084190;28;20419;-41
2022/01/22 12:25:35;;;;;;;12.83;9.30;;;7.00;99.90;;;;;;5089150;28;20422;-39
2022/01/22 12:28:06;;;;;;;11.27;8.90;;;7.00;99.90;;;;;;5088752;28;20517;-40
2022/01/22 12:31:00;;;;;;;14.37;8.87;;;6.90;99.90;;;;;;5088318;28;20630;-40
2022/01/22 12:33:28;;;;;;;14.33;10.00;;;6.80;99.90;;;;;;5089038;28;20430;-41
2022/01/22 12:36:05;;;;;;;13.80;10.60;;;6.90;99.90;;;;;;5081087;28;20843;-40
2022/01/22 12:38:49;;;;;;;12.70;9.57;;;7.00;99.90;;;;;;5086133;28;20470;-40
2022/01/22 12:46:53;;;;;;;11.10;8.40;;;7.00;99.90;;;;;;5066657;28;20448;-40
2022/01/22 12:49:20;;;;;;;12.20;9.90;;;6.90;99.90;;;;;;5088205;28;20426;-41
2022/01/22 12:51:52;;;;;;;12.97;10.00;;;7.00;99.90;;;;;;5080381;28;20422;-40
2022/01/22 12:54:35;;;;;;;12.57;9.83;;;7.00;99.90;;;;;;5088342;28;20432;-40
2022/01/22 12:57:13;;;;;;;18.37;11.37;;;7.00;99.90;;;;;;5088578;28;20796;-40
2022/01/22 13:00:13;;;;;;;12.87;9.50;;;7.10;99.90;;;;;;5087578;28;20425;-40
2022/01/22 13:02:41;;;;;;;12.17;8.67;;;7.10;99.90;;;;;;5088364;28;20422;-40
2022/01/22 13:05:08;;;;;;;17.80;9.90;;;7.20;99.90;;;;;;5088177;28;20509;-40
2022/01/22 13:07:43;;;;;;;16.50;9.70;;;7.10;99.90;;;;;;5078765;28;20485;-40
2022/01/22 13:10:10;;;;;;;15.60;9.70;;;7.00;99.90;;;;;;5087261;28;20509;-39
2022/01/22 13:12:41;;;;;;;15.53;10.53;;;7.00;99.90;;;;;;5086172;28;20435;-41
2022/01/22 13:15:10;;;;;;;12.87;10.20;;;7.10;99.90;;;;;;5087904;28;20437;-40
2022/01/22 13:17:36;;;;;;;13.67;9.13;;;7.20;99.90;;;;;;5086909;28;20465;-40
2022/01/22 13:20:05;;;;;;;12.17;9.30;;;7.10;99.90;;;;;;5087565;28;20624;-42
2022/01/22 13:22:33;;;;;;;11.13;8.43;;;6.90;99.90;;;;;;5071381;28;20516;-40
2022/01/22 13:25:10;;;;;;;10.57;7.97;;;7.20;99.90;;;;;;5086979;28;20427;-40
2022/01/22 13:27:39;;;;;;;11.57;8.00;;;7.30;99.90;;;;;;5088321;28;20418;-39
2022/01/22 13:30:08;;;;;;;10.87;7.67;;;7.00;99.90;;;;;;5087061;28;20426;-40
2022/01/22 13:32:55;;;;;;;16.50;9.77;;;7.10;99.90;;;;;;5088089;28;20452;-40
2022/01/22 13:49:30;;;;;;;14.00;10.37;;;6.80;99.90;;;;;;5087150;28;20444;-40
2022/01/22 13:52:06;;;;;;;12.37;10.23;;;6.90;99.90;;;;;;5077248;28;20518;-41
2022/01/22 13:54:36;;;;;;;13.73;10.47;;;7.00;99.90;;;;;;5087558;28;20808;-39
2022/01/22 13:57:08;;;;;;;13.20;9.67;;;6.80;99.90;;;;;;5087246;28;20789;-40
2022/01/22 13:59:38;;;;;;;13.33;9.90;;;6.90;99.90;;;;;;5086009;28;20478;-39
2022/01/22 14:04:55;;;;;;;16.83;11.17;;;7.00;99.90;;;;;;5085249;28;20424;-41
2022/01/22 14:07:39;;;;;;;16.90;10.70;;;7.00;99.90;;;;;;5079603;28;20434;-39
2022/01/22 14:10:12;;;;;;;15.73;10.77;;;7.10;99.90;;;;;;5083310;28;20678;-41
2022/01/22 14:12:46;;;;;;;13.40;9.77;;;6.90;99.90;;;;;;5076916;28;20434;-40
2022/01/22 14:15:16;;;;;;;14.30;10.00;;;6.90;99.90;;;;;;5083038;28;20425;-40
2022/01/22 14:18:16;;;;;;;12.37;9.70;;;7.00;99.90;;;;;;5087106;28;20519;-39
2022/01/22 14:20:55;;;;;;;13.13;9.20;;;6.80;99.90;;;;;;5073818;28;20421;-40
2022/01/22 14:23:30;;;;;;;13.73;10.23;;;7.00;99.90;;;;;;5082177;28;20433;-40
2022/01/22 14:26:10;;;;;;;12.80;9.60;;;6.80;99.90;;;;;;5083338;28;20410;-40
2022/01/22 14:28:49;;;;;;;14.13;9.50;;;6.90;99.90;;;;;;5083783;28;20432;-39
2022/01/22 14:31:43;;;;;;;16.37;9.90;;;7.10;99.90;;;;;;5085237;28;20419;-40
2022/01/22 14:34:28;;;;;;;11.60;9.67;;;6.70;99.90;;;;;;5068070;28;20804;-40
2022/01/22 14:36:54;;;;;;;18.30;11.90;;;7.00;99.90;;;;;;5069128;28;20458;-40
2022/01/22 14:44:47;;;;;;;12.70;10.57;;;6.70;99.90;;;;;;5085691;28;20427;-40
2022/01/22 14:47:27;;;;;;;13.63;10.20;;;6.80;99.90;;;;;;5082919;28;20444;-39
2022/01/22 14:50:07;;;;;;;15.80;10.40;;;6.90;99.90;;;;;;5084202;28;20422;-40
2022/01/22 14:52:33;;;;;;;13.40;9.47;;;6.90;99.90;;;;;;5081884;28;20476;-40
2022/01/22 14:55:03;;;;;;;15.10;10.60;;;6.60;99.90;;;;;;5085228;28;20856;-39
2022/01/22 14:57:32;;;;;;;15.83;9.90;;;7.00;99.90;;;;;;5085431;28;20243;-41
2022/01/22 15:00:03;;;;;;;12.93;9.20;;;6.90;99.90;;;;;;5082862;28;20426;-41